Time;durP1;ratioP1;P1;durP2;ratioP2;P2;SDS_P1;SDS_P2;PMS_P1;PMS_P2;Temp;Humidity;BMP_temperature;BMP_pressure;BME280_temperature;BME280_humidity;BME280_pressure;Samples;Min_cycle;Max_cycle;Signal;HPM_P1;HPM_P2
2021/12/13 00:02:15;;;;;;;117.57;25.83;;;;;;;;;;5110968;28;20093;-77
2021/12/13 00:04:48;;;;;;;106.47;25.15;;;;;;;;;;5111247;28;20135;-77
2021/12/13 00:07:14;;;;;;;114.20;26.08;;;;;;;;;;5111059;28;20267;-77
2021/12/13 00:09:41;;;;;;;114.32;26.02;;;;;;;;;;5110692;28;20084;-77
2021/12/13 00:12:09;;;;;;;113.55;26.27;;;;;;;;;;5111912;28;20056;-76
2021/12/13 00:14:37;;;;;;;107.60;26.92;;;;;;;;;;5110832;28;20039;-77
2021/12/13 00:17:06;;;;;;;119.28;25.48;;;;;;;;;;5093665;28;20036;-77
2021/12/13 00:19:40;;;;;;;113.13;25.92;;;;;;;;;;5110547;28;20039;-77
2021/12/13 00:22:12;;;;;;;112.03;25.45;;;;;;;;;;5109906;28;20056;-77
2021/12/13 00:24:40;;;;;;;102.43;23.60;;;;;;;;;;5110017;28;20058;-77
2021/12/13 00:27:14;;;;;;;105.13;24.13;;;;;;;;;;5110738;28;20043;-77
2021/12/13 00:29:49;;;;;;;93.38;21.33;;;;;;;;;;5110020;28;20035;-76
2021/12/13 00:32:31;;;;;;;74.47;20.20;;;;;;;;;;5110221;28;20044;-77
2021/12/13 00:35:03;;;;;;;73.85;19.48;;;;;;;;;;5110598;28;20665;-77
2021/12/13 00:37:34;;;;;;;88.30;20.98;;;;;;;;;;5110440;28;20546;-77
2021/12/13 00:40:03;;;;;;;78.88;19.98;;;;;;;;;;5111361;28;20337;-77
2021/12/13 00:42:34;;;;;;;88.47;19.90;;;;;;;;;;5109939;28;20039;-77
2021/12/13 00:45:03;;;;;;;78.80;19.70;;;;;;;;;;5111572;28;20039;-84
2021/12/13 00:47:31;;;;;;;67.50;19.27;;;;;;;;;;5111245;28;20039;-84
2021/12/13 00:50:01;;;;;;;72.05;19.42;;;;;;;;;;5110126;28;20050;-84
2021/12/13 00:52:28;;;;;;;65.80;19.30;;;;;;;;;;5110544;28;20482;-77
2021/12/13 00:54:56;;;;;;;76.05;19.30;;;;;;;;;;5109563;28;20046;-77
2021/12/13 00:57:31;;;;;;;75.65;20.00;;;;;;;;;;5111087;28;20513;-76
2021/12/13 01:00:03;;;;;;;69.77;19.13;;;;;;;;;;5109696;28;20054;-77
2021/12/13 01:02:50;;;;;;;66.38;18.98;;;;;;;;;;5093043;28;20495;-84
2021/12/13 01:05:16;;;;;;;61.45;19.38;;;;;;;;;;5111157;28;20495;-84
2021/12/13 01:07:57;;;;;;;69.97;19.83;;;;;;;;;;5111618;28;20040;-84
2021/12/13 01:10:39;;;;;;;68.60;19.83;;;;;;;;;;5110266;28;20047;-77
2021/12/13 01:13:10;;;;;;;69.97;21.40;;;;;;;;;;5109762;28;20071;-77
2021/12/13 01:15:42;;;;;;;65.93;21.60;;;;;;;;;;5092523;28;20539;-76
2021/12/13 01:18:32;;;;;;;72.28;20.98;;;;;;;;;;5110653;28;20487;-76
2021/12/13 01:21:10;;;;;;;70.68;21.20;;;;;;;;;;5092158;28;20078;-76
2021/12/13 01:23:47;;;;;;;78.07;20.25;;;;;;;;;;5091930;28;20124;-76
2021/12/13 01:26:37;;;;;;;69.80;19.70;;;;;;;;;;5109104;28;20123;-76
2021/12/13 01:29:06;;;;;;;62.47;19.30;;;;;;;;;;5109296;28;20428;-76
2021/12/13 01:31:34;;;;;;;64.97;19.17;;;;;;;;;;5108813;28;20050;-76
2021/12/13 01:34:02;;;;;;;60.78;18.17;;;;;;;;;;5108756;28;20127;-76
2021/12/13 01:36:38;;;;;;;58.63;18.63;;;;;;;;;;5110223;28;20039;-77
2021/12/13 01:39:13;;;;;;;57.60;18.25;;;;;;;;;;5109731;28;20435;-77
2021/12/13 01:41:41;;;;;;;56.80;17.80;;;;;;;;;;5109140;28;20399;-76
2021/12/13 01:44:09;;;;;;;54.65;17.67;;;;;;;;;;5109084;28;20108;-76
2021/12/13 01:46:39;;;;;;;50.42;17.75;;;;;;;;;;5118726;28;20051;-84
2021/12/13 01:49:07;;;;;;;59.40;17.33;;;;;;;;;;5111843;28;20489;-83
2021/12/13 01:51:35;;;;;;;55.85;16.80;;;;;;;;;;5110939;28;20091;-84
2021/12/13 01:54:05;;;;;;;54.22;17.85;;;;;;;;;;5110641;28;20047;-83
2021/12/13 01:56:41;;;;;;;51.22;17.38;;;;;;;;;;5110322;28;20044;-76
2021/12/13 01:59:28;;;;;;;49.83;16.88;;;;;;;;;;5110536;28;20496;-83
2021/12/13 02:01:56;;;;;;;49.53;17.20;;;;;;;;;;5111705;28;20051;-76
2021/12/13 02:04:22;;;;;;;64.03;18.27;;;;;;;;;;5109315;28;20032;-83
2021/12/13 02:06:58;;;;;;;48.25;16.55;;;;;;;;;;5113219;28;20048;-77
2021/12/13 02:09:26;;;;;;;49.75;16.10;;;;;;;;;;5092674;28;20134;-83
2021/12/13 02:11:55;;;;;;;43.80;15.98;;;;;;;;;;5109830;28;20503;-84
2021/12/13 02:14:25;;;;;;;48.83;16.80;;;;;;;;;;5109615;28;20048;-76
2021/12/13 02:17:02;;;;;;;53.55;16.63;;;;;;;;;;5108671;28;20036;-75
2021/12/13 02:19:32;;;;;;;49.25;17.85;;;;;;;;;;5108325;28;20052;-83
2021/12/13 02:22:09;;;;;;;46.80;16.85;;;;;;;;;;5109360;28;20043;-76
2021/12/13 02:24:37;;;;;;;46.00;17.02;;;;;;;;;;5108061;28;20047;-76
2021/12/13 02:27:06;;;;;;;48.97;18.77;;;;;;;;;;5108425;28;20084;-76
2021/12/13 02:29:37;;;;;;;51.22;18.88;;;;;;;;;;5091465;28;20043;-76
2021/12/13 02:32:08;;;;;;;43.08;18.13;;;;;;;;;;5126759;27;20338;-83
2021/12/13 02:34:36;;;;;;;43.08;17.13;;;;;;;;;;5092114;28;20084;-83
2021/12/13 02:37:03;;;;;;;40.95;17.20;;;;;;;;;;5109125;28;20035;-84
2021/12/13 02:39:31;;;;;;;43.17;17.75;;;;;;;;;;5108407;28;20035;-83
2021/12/13 02:41:58;;;;;;;42.20;15.52;;;;;;;;;;5109093;28;20498;-84
2021/12/13 02:44:29;;;;;;;41.40;15.48;;;;;;;;;;5108637;28;20543;-84
2021/12/13 02:46:57;;;;;;;41.33;14.73;;;;;;;;;;5111100;28;20126;-83
2021/12/13 02:49:24;;;;;;;40.25;13.60;;;;;;;;;;5112160;28;20131;-77
2021/12/13 02:51:55;;;;;;;31.35;12.55;;;;;;;;;;5112202;28;20093;-76
2021/12/13 02:54:27;;;;;;;27.75;12.10;;;;;;;;;;5111992;28;20387;-76
2021/12/13 02:56:58;;;;;;;34.78;12.32;;;;;;;;;;5112051;28;20034;-77
2021/12/13 02:59:26;;;;;;;21.85;9.93;;;;;;;;;;5111394;28;20044;-76
2021/12/13 03:01:57;;;;;;;23.55;9.50;;;;;;;;;;5101935;28;20135;-76
2021/12/13 03:04:25;;;;;;;29.00;9.75;;;;;;;;;;5109278;28;20031;-76
2021/12/13 03:07:00;;;;;;;20.10;9.20;;;;;;;;;;5110733;28;20105;-76
2021/12/13 03:09:27;;;;;;;16.27;8.15;;;;;;;;;;5098801;28;20051;-76
2021/12/13 03:11:54;;;;;;;17.77;8.02;;;;;;;;;;5091026;28;20040;-76
2021/12/13 03:14:27;;;;;;;22.20;7.60;;;;;;;;;;5090970;28;20044;-76
2021/12/13 03:17:04;;;;;;;19.33;7.75;;;;;;;;;;5091317;28;20048;-76
2021/12/13 03:19:48;;;;;;;18.40;6.90;;;;;;;;;;5091022;28;20060;-77
2021/12/13 03:22:33;;;;;;;11.63;6.13;;;;;;;;;;5090872;28;20048;-83
2021/12/13 03:25:05;;;;;;;13.88;6.10;;;;;;;;;;5091343;28;20040;-84
2021/12/13 03:27:46;;;;;;;12.20;6.43;;;;;;;;;;5090715;28;20055;-76
2021/12/13 03:30:12;;;;;;;11.77;6.05;;;;;;;;;;5094070;28;20044;-76
2021/12/13 03:32:43;;;;;;;14.75;6.18;;;;;;;;;;5110580;28;20062;-76
2021/12/13 03:35:15;;;;;;;17.08;6.20;;;;;;;;;;5094253;28;20031;-76
2021/12/13 03:37:43;;;;;;;13.10;5.60;;;;;;;;;;5110983;28;20394;-76
2021/12/13 03:40:15;;;;;;;8.57;5.20;;;;;;;;;;5111592;28;20372;-76
2021/12/13 03:42:44;;;;;;;13.30;5.97;;;;;;;;;;5110700;28;20062;-76
2021/12/13 03:45:19;;;;;;;9.52;5.50;;;;;;;;;;5094022;28;20105;-83
2021/12/13 03:47:49;;;;;;;13.97;6.03;;;;;;;;;;5110943;28;20039;-83
2021/12/13 03:50:18;;;;;;;16.52;5.88;;;;;;;;;;5110780;28;20055;-83
2021/12/13 03:52:49;;;;;;;13.93;6.03;;;;;;;;;;5110453;28;20047;-84
2021/12/13 03:55:17;;;;;;;13.88;6.30;;;;;;;;;;5110762;28;20071;-84
2021/12/13 03:57:48;;;;;;;16.50;6.90;;;;;;;;;;5109447;28;20263;-83
2021/12/13 04:00:18;;;;;;;14.52;6.75;;;;;;;;;;5110746;28;20487;-84
2021/12/13 04:02:45;;;;;;;16.65;7.72;;;;;;;;;;5110433;28;20409;-84
2021/12/13 04:05:14;;;;;;;14.95;6.80;;;;;;;;;;5093601;28;20043;-84
2021/12/13 04:07:45;;;;;;;14.43;7.43;;;;;;;;;;5093267;28;20044;-83
2021/12/13 04:10:14;;;;;;;15.10;7.05;;;;;;;;;;5110558;28;20077;-76
2021/12/13 04:12:47;;;;;;;20.60;8.18;;;;;;;;;;5110163;28;20508;-76
2021/12/13 04:15:48;;;;;;;16.52;7.80;;;;;;;;;;5110416;28;20050;-77
2021/12/13 04:18:28;;;;;;;13.00;7.03;;;;;;;;;;5110374;28;20093;-76
2021/12/13 04:21:05;;;;;;;21.02;8.30;;;;;;;;;;5110700;28;20052;-77
2021/12/13 04:23:32;;;;;;;18.98;7.40;;;;;;;;;;5109549;28;20105;-76
2021/12/13 04:26:00;;;;;;;19.17;7.30;;;;;;;;;;5093870;28;20459;-76
2021/12/13 04:28:31;;;;;;;16.48;7.07;;;;;;;;;;5092519;28;20126;-76
2021/12/13 04:30:59;;;;;;;17.70;7.60;;;;;;;;;;5110256;28;20043;-76
2021/12/13 04:33:36;;;;;;;14.80;7.53;;;;;;;;;;5109655;28;20059;-76
2021/12/13 04:36:07;;;;;;;17.83;7.18;;;;;;;;;;5110440;28;20386;-76
2021/12/13 04:38:48;;;;;;;17.38;7.72;;;;;;;;;;5109501;28;20043;-77
2021/12/13 04:41:20;;;;;;;18.50;8.48;;;;;;;;;;5110624;28;20379;-84
2021/12/13 04:43:46;;;;;;;19.55;7.78;;;;;;;;;;5110045;28;20077;-76
2021/12/13 04:46:17;;;;;;;19.55;8.73;;;;;;;;;;5093163;28;20435;-83
2021/12/13 04:48:46;;;;;;;19.73;8.43;;;;;;;;;;5109200;28;20491;-83
2021/12/13 04:51:15;;;;;;;19.73;9.18;;;;;;;;;;5109866;28;20130;-83
2021/12/13 04:53:44;;;;;;;19.98;9.32;;;;;;;;;;5108988;28;20131;-83
2021/12/13 04:56:12;;;;;;;26.05;10.02;;;;;;;;;;5109758;28;20047;-83
2021/12/13 04:58:39;;;;;;;19.25;9.20;;;;;;;;;;5092171;28;20096;-83
2021/12/13 05:01:07;;;;;;;19.90;9.77;;;;;;;;;;5106455;28;20039;-83
2021/12/13 05:03:35;;;;;;;22.15;9.63;;;;;;;;;;5107296;28;20132;-76
2021/12/13 05:06:20;;;;;;;22.67;9.27;;;;;;;;;;5108427;28;20050;-76
2021/12/13 05:08:49;;;;;;;17.92;9.07;;;;;;;;;;5108486;28;20062;-76
2021/12/13 05:11:15;;;;;;;19.33;9.35;;;;;;;;;;5109475;28;20075;-76
2021/12/13 05:13:52;;;;;;;19.90;9.45;;;;;;;;;;5108989;28;20652;-76
2021/12/13 05:16:20;;;;;;;23.52;9.00;;;;;;;;;;5109379;28;20082;-76
2021/12/13 05:18:51;;;;;;;18.40;7.57;;;;;;;;;;5092162;28;20071;-76
2021/12/13 05:21:25;;;;;;;19.23;8.63;;;;;;;;;;5109187;28;20039;-76
2021/12/13 05:23:55;;;;;;;25.55;8.98;;;;;;;;;;5108965;28;20063;-75
2021/12/13 05:26:31;;;;;;;17.05;8.02;;;;;;;;;;5109556;28;20048;-82
2021/12/13 05:28:57;;;;;;;17.70;8.32;;;;;;;;;;5109986;28;20051;-82
2021/12/13 05:31:25;;;;;;;17.25;7.75;;;;;;;;;;5108998;28;20047;-83
2021/12/13 05:33:53;;;;;;;21.45;8.32;;;;;;;;;;5110602;28;20376;-83
2021/12/13 05:36:22;;;;;;;14.85;7.70;;;;;;;;;;5109709;28;20504;-83
2021/12/13 05:38:50;;;;;;;18.00;7.82;;;;;;;;;;5109163;28;20581;-83
2021/12/13 05:41:25;;;;;;;17.83;8.48;;;;;;;;;;5109197;28;20039;-83
2021/12/13 05:43:52;;;;;;;21.27;8.18;;;;;;;;;;5109360;28;20054;-83
2021/12/13 05:46:20;;;;;;;18.33;8.23;;;;;;;;;;5109209;28;20123;-83
2021/12/13 05:49:01;;;;;;;16.17;8.90;;;;;;;;;;5108578;28;20074;-83
2021/12/13 05:51:33;;;;;;;20.55;9.18;;;;;;;;;;5108764;28;20502;-76
2021/12/13 05:54:06;;;;;;;16.13;9.05;;;;;;;;;;5108869;28;20160;-76
2021/12/13 05:56:43;;;;;;;18.77;9.50;;;;;;;;;;5108417;28;20036;-76
2021/12/13 05:59:09;;;;;;;18.75;9.63;;;;;;;;;;5108572;28;20036;-75
2021/12/13 06:01:41;;;;;;;21.85;10.45;;;;;;;;;;5108369;28;20043;-83
2021/12/13 06:04:07;;;;;;;21.70;10.95;;;;;;;;;;5109537;28;20047;-83
2021/12/13 06:06:35;;;;;;;22.08;10.60;;;;;;;;;;5108390;28;20039;-83
2021/12/13 06:09:01;;;;;;;26.17;11.52;;;;;;;;;;5108601;28;20036;-83
2021/12/13 06:11:38;;;;;;;20.73;10.95;;;;;;;;;;5108463;28;20043;-83
2021/12/13 06:14:06;;;;;;;20.58;10.60;;;;;;;;;;5109075;28;20092;-82
2021/12/13 06:16:35;;;;;;;22.15;11.75;;;;;;;;;;5108390;28;20376;-83
2021/12/13 06:19:08;;;;;;;21.63;12.20;;;;;;;;;;5091280;28;20066;-76
2021/12/13 06:21:44;;;;;;;23.15;12.27;;;;;;;;;;5113263;28;20031;-76
2021/12/13 06:24:10;;;;;;;;;;;;;;;;;;5115246;27;20052;-83
2021/12/13 06:26:36;;;;;;;26.08;13.05;;;;;;;;;;5115233;28;19915;-76
2021/12/13 06:29:05;;;;;;;25.52;13.57;;;;;;;;;;5115344;28;20400;-76
2021/12/13 06:31:50;;;;;;;24.40;13.90;;;;;;;;;;5114676;28;20533;-75
2021/12/13 06:34:16;;;;;;;27.40;13.18;;;;;;;;;;5115403;28;20055;-76
2021/12/13 06:36:45;;;;;;;23.13;13.80;;;;;;;;;;5115852;28;20039;-76
2021/12/13 06:39:20;;;;;;;24.58;14.15;;;;;;;;;;5114967;28;20043;-76
2021/12/13 06:41:47;;;;;;;28.25;14.80;;;;;;;;;;5097753;28;20100;-76
2021/12/13 06:44:16;;;;;;;28.30;14.50;;;;;;;;;;5116478;28;20115;-76
2021/12/13 06:46:45;;;;;;;27.95;14.95;;;;;;;;;;5114298;28;20636;-75
2021/12/13 06:49:14;;;;;;;28.70;15.43;;;;;;;;;;5114378;28;20050;-76
2021/12/13 06:51:55;;;;;;;24.90;15.32;;;;;;;;;;5114900;28;20342;-76
2021/12/13 06:54:21;;;;;;;32.17;15.68;;;;;;;;;;5114877;28;20044;-75
2021/12/13 06:56:53;;;;;;;28.55;15.80;;;;;;;;;;5114699;28;20498;-82
2021/12/13 06:59:19;;;;;;;32.10;15.80;;;;;;;;;;5114768;28;20039;-82
2021/12/13 07:01:56;;;;;;;30.85;16.63;;;;;;;;;;5114256;27;20047;-76
2021/12/13 07:04:22;;;;;;;27.23;16.05;;;;;;;;;;5115114;28;20594;-82
2021/12/13 07:06:49;;;;;;;30.80;16.08;;;;;;;;;;5097594;28;20048;-83
2021/12/13 07:09:17;;;;;;;33.40;17.20;;;;;;;;;;5114998;28;20050;-76
2021/12/13 07:11:48;;;;;;;27.38;16.90;;;;;;;;;;5113969;27;20120;-76
2021/12/13 07:14:15;;;;;;;30.35;17.40;;;;;;;;;;5114318;28;20048;-76
2021/12/13 07:16:46;;;;;;;32.40;17.90;;;;;;;;;;5097767;28;20432;-82
2021/12/13 07:19:21;;;;;;;33.75;17.48;;;;;;;;;;5115801;28;20036;-83
2021/12/13 07:21:51;;;;;;;24.60;14.03;;;;;;;;;;5097259;28;20507;-75
2021/12/13 07:24:42;;;;;;;35.38;18.95;;;;;;;;;;5114445;28;20094;-75
2021/12/13 07:27:10;;;;;;;33.65;18.17;;;;;;;;;;5114643;28;20052;-82
2021/12/13 07:29:51;;;;;;;33.28;19.42;;;;;;;;;;5115146;28;20126;-82
2021/12/13 07:32:19;;;;;;;31.77;17.90;;;;;;;;;;5113318;28;20075;-82
2021/12/13 07:34:55;;;;;;;30.80;17.83;;;;;;;;;;5093732;28;20390;-75
2021/12/13 07:37:36;;;;;;;33.45;19.33;;;;;;;;;;5094474;28;20554;-75
2021/12/13 07:40:16;;;;;;;33.65;18.63;;;;;;;;;;5112082;28;20040;-76
2021/12/13 07:42:50;;;;;;;32.88;18.20;;;;;;;;;;5110653;28;20042;-76
2021/12/13 07:45:42;;;;;;;32.42;17.63;;;;;;;;;;5112500;28;20032;-75
2021/12/13 07:48:10;;;;;;;29.50;17.48;;;;;;;;;;5108865;28;20517;-82
2021/12/13 07:50:37;;;;;;;30.85;17.67;;;;;;;;;;5110258;28;20039;-82
2021/12/13 07:53:05;;;;;;;28.88;18.00;;;;;;;;;;5093905;28;20047;-82
2021/12/13 07:55:31;;;;;;;29.35;17.88;;;;;;;;;;5110551;28;20040;-76
2021/12/13 07:58:00;;;;;;;31.88;18.13;;;;;;;;;;5093994;28;20118;-76
2021/12/13 08:00:31;;;;;;;31.95;18.50;;;;;;;;;;5111706;28;20031;-75
2021/12/13 08:02:59;;;;;;;31.65;18.13;;;;;;;;;;5110612;28;20079;-75
2021/12/13 08:05:52;;;;;;;32.15;18.13;;;;;;;;;;5111782;28;20050;-75
2021/12/13 08:08:22;;;;;;;31.85;18.13;;;;;;;;;;5106213;28;20062;-75
2021/12/13 08:10:50;;;;;;;29.95;18.35;;;;;;;;;;5092686;28;20043;-76
2021/12/13 08:13:18;;;;;;;29.88;18.23;;;;;;;;;;5110254;28;20039;-82
2021/12/13 08:16:05;;;;;;;29.40;17.83;;;;;;;;;;5094440;28;20073;-82
2021/12/13 08:18:31;;;;;;;;;;;;;;;;;;5094141;28;20467;-82
2021/12/13 08:21:00;;;;;;;32.03;17.48;;;;;;;;;;5093463;28;20022;-82
2021/12/13 08:23:46;;;;;;;30.92;17.13;;;;;;;;;;5093052;28;20091;-82
2021/12/13 08:26:15;;;;;;;28.27;17.52;;;;;;;;;;5110097;28;20051;-75
2021/12/13 08:28:43;;;;;;;30.83;17.05;;;;;;;;;;5110032;28;20126;-81
2021/12/13 08:31:12;;;;;;;28.42;16.48;;;;;;;;;;5111142;28;20032;-75
2021/12/13 08:33:40;;;;;;;26.73;17.05;;;;;;;;;;5111096;28;20036;-75
2021/12/13 08:36:17;;;;;;;28.85;16.77;;;;;;;;;;5110118;28;20415;-75
2021/12/13 08:39:05;;;;;;;28.90;16.77;;;;;;;;;;5111098;28;20543;-75
2021/12/13 08:41:39;;;;;;;29.67;16.90;;;;;;;;;;5109599;28;20035;-76
2021/12/13 08:44:14;;;;;;;24.73;15.82;;;;;;;;;;5110781;28;20069;-75
2021/12/13 08:46:55;;;;;;;26.58;15.80;;;;;;;;;;5110792;28;20082;-75
2021/12/13 08:49:24;;;;;;;27.13;15.75;;;;;;;;;;5109996;28;20050;-76
2021/12/13 08:52:09;;;;;;;26.02;15.63;;;;;;;;;;5109065;28;20031;-75
2021/12/13 08:54:37;;;;;;;25.42;15.63;;;;;;;;;;5109988;28;20376;-76
2021/12/13 08:57:06;;;;;;;25.70;15.15;;;;;;;;;;5110021;28;20079;-75
2021/12/13 08:59:32;;;;;;;28.33;16.38;;;;;;;;;;5109616;28;20047;-75
2021/12/13 09:02:01;;;;;;;28.60;15.80;;;;;;;;;;5109614;28;20089;-78
2021/12/13 09:04:38;;;;;;;25.90;16.17;;;;;;;;;;5111079;28;20047;-82
2021/12/13 09:07:06;;;;;;;25.80;14.60;;;;;;;;;;5109595;28;20249;-75
2021/12/13 09:09:34;;;;;;;28.52;16.52;;;;;;;;;;5092604;28;20046;-75
2021/12/13 09:12:08;;;;;;;28.52;16.00;;;;;;;;;;5110607;28;20039;-75
2021/12/13 09:14:39;;;;;;;27.75;16.00;;;;;;;;;;5109455;28;20052;-75
2021/12/13 09:17:16;;;;;;;25.55;15.18;;;;;;;;;;5110729;28;20039;-82
2021/12/13 09:20:05;;;;;;;25.92;15.98;;;;;;;;;;5109173;28;20077;-82
2021/12/13 09:22:33;;;;;;;29.10;15.85;;;;;;;;;;5110256;28;20539;-82
2021/12/13 09:25:06;;;;;;;23.67;14.55;;;;;;;;;;5110820;28;20047;-75
2021/12/13 09:27:32;;;;;;;26.77;14.90;;;;;;;;;;5109001;28;20044;-82
2021/12/13 09:30:04;;;;;;;27.15;15.52;;;;;;;;;;5092971;28;20741;-82
2021/12/13 09:32:34;;;;;;;24.00;14.20;;;;;;;;;;5109032;28;20070;-82
2021/12/13 09:35:18;;;;;;;26.20;14.52;;;;;;;;;;5109453;28;20050;-75
2021/12/13 09:37:45;;;;;;;22.58;13.82;;;;;;;;;;5109012;28;20043;-75
2021/12/13 09:40:12;;;;;;;25.58;15.10;;;;;;;;;;5108960;28;20047;-75
2021/12/13 09:42:49;;;;;;;25.88;14.82;;;;;;;;;;5126213;27;20050;-76
2021/12/13 09:45:20;;;;;;;23.80;15.02;;;;;;;;;;5109421;28;20556;-76
2021/12/13 09:47:46;;;;;;;25.63;14.68;;;;;;;;;;5108887;28;20046;-76
2021/12/13 09:50:16;;;;;;;24.75;15.10;;;;;;;;;;5108956;28;20039;-75
2021/12/13 09:53:01;;;;;;;23.45;13.77;;;;;;;;;;5108313;28;20040;-75
2021/12/13 09:55:27;;;;;;;24.42;14.38;;;;;;;;;;5091287;28;20096;-76
2021/12/13 09:58:06;;;;;;;30.70;15.52;;;;;;;;;;5109145;28;20092;-75
2021/12/13 10:00:34;;;;;;;28.98;16.00;;;;;;;;;;5109026;28;20045;-82
2021/12/13 10:03:03;;;;;;;28.23;15.48;;;;;;;;;;5109998;28;20425;-81
2021/12/13 10:05:31;;;;;;;25.85;15.07;;;;;;;;;;5109110;28;20428;-82
2021/12/13 10:07:59;;;;;;;27.05;14.55;;;;;;;;;;5108640;28;20490;-82
2021/12/13 10:10:28;;;;;;;28.27;15.25;;;;;;;;;;5108855;28;20048;-82
2021/12/13 10:12:58;;;;;;;25.58;15.00;;;;;;;;;;5108991;28;20398;-77
2021/12/13 10:15:50;;;;;;;29.63;15.05;;;;;;;;;;5109936;28;20040;-76
2021/12/13 10:18:19;;;;;;;25.45;15.05;;;;;;;;;;5087374;28;20063;-82
2021/12/13 10:20:47;;;;;;;26.80;14.85;;;;;;;;;;5108542;28;20495;-82
2021/12/13 10:23:17;;;;;;;28.23;15.05;;;;;;;;;;5108260;28;20087;-82
2021/12/13 10:25:47;;;;;;;24.88;15.18;;;;;;;;;;5109734;28;20384;-82
2021/12/13 10:28:15;;;;;;;25.63;14.00;;;;;;;;;;5108277;28;20050;-76
2021/12/13 10:30:51;;;;;;;28.00;14.45;;;;;;;;;;5108113;28;20039;-76
2021/12/13 10:33:18;;;;;;;29.77;15.27;;;;;;;;;;5108220;28;20035;-76
2021/12/13 10:35:44;;;;;;;28.77;15.13;;;;;;;;;;5108350;28;20039;-75
2021/12/13 10:38:13;;;;;;;28.45;14.82;;;;;;;;;;5108519;28;20043;-75
2021/12/13 10:40:42;;;;;;;31.48;16.05;;;;;;;;;;5091934;28;20040;-75
2021/12/13 10:43:13;;;;;;;25.08;14.88;;;;;;;;;;5109463;28;20062;-76
2021/12/13 10:45:45;;;;;;;28.08;15.48;;;;;;;;;;5109657;28;20040;-75
2021/12/13 10:48:13;;;;;;;30.88;15.48;;;;;;;;;;5108577;28;20052;-75
2021/12/13 10:50:48;;;;;;;29.42;15.15;;;;;;;;;;5108581;28;20498;-82
2021/12/13 10:53:15;;;;;;;30.25;15.38;;;;;;;;;;5107742;28;20046;-82
2021/12/13 10:55:47;;;;;;;27.50;15.35;;;;;;;;;;5108319;28;20140;-75
2021/12/13 10:58:22;;;;;;;25.27;13.85;;;;;;;;;;5109651;28;20039;-75
2021/12/13 11:00:51;;;;;;;26.10;14.15;;;;;;;;;;5091390;28;20043;-81
2021/12/13 11:03:19;;;;;;;26.33;14.85;;;;;;;;;;5112505;28;20051;-82
2021/12/13 11:05:47;;;;;;;31.13;15.55;;;;;;;;;;5110884;28;20051;-82
2021/12/13 11:08:15;;;;;;;27.88;15.70;;;;;;;;;;5111162;28;20487;-82
2021/12/13 11:10:52;;;;;;;26.60;14.50;;;;;;;;;;5112202;28;20101;-76
2021/12/13 11:13:19;;;;;;;26.60;14.45;;;;;;;;;;5111694;28;20044;-82
2021/12/13 11:15:47;;;;;;;28.85;14.50;;;;;;;;;;5111685;28;20062;-75
2021/12/13 11:18:14;;;;;;;30.42;15.02;;;;;;;;;;5113106;28;20379;-76
2021/12/13 11:20:43;;;;;;;29.25;15.20;;;;;;;;;;5111570;28;20043;-75
2021/12/13 11:23:10;;;;;;;26.30;14.40;;;;;;;;;;5111295;28;20060;-81
2021/12/13 11:25:44;;;;;;;29.02;15.50;;;;;;;;;;5094513;28;20130;-82
2021/12/13 11:28:11;;;;;;;24.83;13.88;;;;;;;;;;5094647;28;20051;-75
2021/12/13 11:30:42;;;;;;;27.50;15.43;;;;;;;;;;5112495;28;20046;-75
2021/12/13 11:33:20;;;;;;;28.13;14.85;;;;;;;;;;5111690;28;20077;-75
2021/12/13 11:36:04;;;;;;;28.02;14.48;;;;;;;;;;5113026;28;20053;-82
2021/12/13 11:38:49;;;;;;;30.55;14.95;;;;;;;;;;5111807;28;20543;-82
2021/12/13 11:41:35;;;;;;;28.67;14.90;;;;;;;;;;5094542;28;20139;-75
2021/12/13 11:44:20;;;;;;;25.25;13.80;;;;;;;;;;5111639;28;20044;-82
2021/12/13 11:47:05;;;;;;;28.50;13.98;;;;;;;;;;5111595;28;20065;-83
2021/12/13 11:49:40;;;;;;;27.85;14.07;;;;;;;;;;5112634;28;20491;-82
2021/12/13 11:52:25;;;;;;;27.00;14.48;;;;;;;;;;5111416;28;20079;-82
2021/12/13 11:55:03;;;;;;;27.08;14.13;;;;;;;;;;5111128;28;20391;-83
2021/12/13 11:57:48;;;;;;;27.27;14.70;;;;;;;;;;5112128;28;20452;-76
2021/12/13 12:00:40;;;;;;;26.83;13.40;;;;;;;;;;5111132;28;20096;-75
2021/12/13 12:03:11;;;;;;;23.90;13.40;;;;;;;;;;5112458;28;20047;-76
2021/12/13 12:05:56;;;;;;;25.30;13.77;;;;;;;;;;5110980;28;20071;-76
2021/12/13 12:08:41;;;;;;;24.35;14.07;;;;;;;;;;5110939;28;20079;-75
2021/12/13 12:11:27;;;;;;;23.95;13.27;;;;;;;;;;5093945;28;20047;-75
2021/12/13 12:14:11;;;;;;;29.45;14.25;;;;;;;;;;5110355;28;20051;-76
2021/12/13 12:16:42;;;;;;;23.17;13.85;;;;;;;;;;5111051;28;20059;-76
2021/12/13 12:19:13;;;;;;;22.05;12.90;;;;;;;;;;5111189;28;20105;-76
2021/12/13 12:21:44;;;;;;;25.30;13.45;;;;;;;;;;5093402;28;20040;-76
2021/12/13 12:24:15;;;;;;;29.50;13.45;;;;;;;;;;5110839;28;20067;-76
2021/12/13 12:26:43;;;;;;;23.90;12.93;;;;;;;;;;5110313;28;20044;-76
2021/12/13 12:29:11;;;;;;;24.85;13.07;;;;;;;;;;5110860;28;20055;-76
2021/12/13 12:31:42;;;;;;;22.77;12.02;;;;;;;;;;5111599;28;20047;-76
2021/12/13 12:34:10;;;;;;;22.85;13.18;;;;;;;;;;5110147;28;20043;-76
2021/12/13 12:36:44;;;;;;;24.25;12.50;;;;;;;;;;5110092;28;20047;-76
2021/12/13 12:39:29;;;;;;;20.52;12.35;;;;;;;;;;5110656;28;20040;-76
2021/12/13 12:42:14;;;;;;;22.40;12.25;;;;;;;;;;5109750;28;20039;-76
2021/12/13 12:45:00;;;;;;;24.17;12.82;;;;;;;;;;5109798;28;20043;-82
2021/12/13 12:47:36;;;;;;;25.08;11.80;;;;;;;;;;5110244;28;20122;-82
2021/12/13 12:50:16;;;;;;;21.73;12.55;;;;;;;;;;5110801;28;20044;-82
2021/12/13 12:52:50;;;;;;;22.08;12.85;;;;;;;;;;5110154;28;20035;-82
2021/12/13 12:55:18;;;;;;;23.52;12.93;;;;;;;;;;5111803;28;20482;-82
2021/12/13 12:57:44;;;;;;;22.83;12.27;;;;;;;;;;5111565;28;20039;-82
2021/12/13 13:00:11;;;;;;;21.30;11.98;;;;;;;;;;5111364;28;20104;-75
2021/12/13 13:02:37;;;;;;;25.17;11.82;;;;;;;;;;5109482;28;20063;-75
2021/12/13 13:05:05;;;;;;;22.02;11.55;;;;;;;;;;5093389;28;20043;-76
2021/12/13 13:07:33;;;;;;;23.65;12.27;;;;;;;;;;5092928;28;20048;-76
2021/12/13 13:10:01;;;;;;;19.80;11.65;;;;;;;;;;5092847;28;20495;-82
2021/12/13 13:12:30;;;;;;;20.17;11.63;;;;;;;;;;5109860;28;20097;-76
2021/12/13 13:14:59;;;;;;;24.27;13.05;;;;;;;;;;5109557;28;20466;-76
2021/12/13 13:17:27;;;;;;;21.83;12.50;;;;;;;;;;5110052;28;20425;-76
2021/12/13 13:20:04;;;;;;;22.30;12.55;;;;;;;;;;5109168;28;20180;-76
2021/12/13 13:22:33;;;;;;;23.25;11.73;;;;;;;;;;5109158;28;20039;-82
2021/12/13 13:25:02;;;;;;;24.48;12.10;;;;;;;;;;5110754;28;20074;-82
2021/12/13 13:27:29;;;;;;;25.95;11.90;;;;;;;;;;5109754;28;20044;-82
2021/12/13 13:29:56;;;;;;;24.83;13.13;;;;;;;;;;5108802;28;20039;-82
2021/12/13 13:32:23;;;;;;;21.85;12.48;;;;;;;;;;5109413;28;20035;-76
2021/12/13 13:34:54;;;;;;;22.98;12.18;;;;;;;;;;5109374;28;20047;-76
2021/12/13 13:37:22;;;;;;;23.45;12.70;;;;;;;;;;5109421;28;20046;-82
2021/12/13 13:39:50;;;;;;;22.67;12.95;;;;;;;;;;5092133;28;20109;-82
2021/12/13 13:42:19;;;;;;;24.80;12.00;;;;;;;;;;5109610;28;20039;-77
2021/12/13 13:45:03;;;;;;;23.67;13.10;;;;;;;;;;5109385;28;20055;-77
2021/12/13 13:47:34;;;;;;;24.73;12.75;;;;;;;;;;5109028;28;20113;-76
2021/12/13 13:50:16;;;;;;;24.90;12.40;;;;;;;;;;5109211;28;20042;-83
2021/12/13 13:52:44;;;;;;;23.77;11.93;;;;;;;;;;5109438;28;20081;-83
2021/12/13 13:55:19;;;;;;;21.52;11.80;;;;;;;;;;5109385;28;20047;-76
2021/12/13 13:57:50;;;;;;;23.80;12.50;;;;;;;;;;5091731;28;20110;-77
2021/12/13 14:00:16;;;;;;;24.75;12.55;;;;;;;;;;5110834;28;20080;-77
2021/12/13 14:02:43;;;;;;;24.23;12.05;;;;;;;;;;5108596;28;20412;-82
2021/12/13 14:05:10;;;;;;;21.42;12.05;;;;;;;;;;5109122;28;20502;-83
2021/12/13 14:07:38;;;;;;;26.10;12.13;;;;;;;;;;5091937;28;20043;-78
2021/12/13 14:10:10;;;;;;;23.13;11.88;;;;;;;;;;5091819;28;20126;-77
2021/12/13 14:12:40;;;;;;;24.42;12.10;;;;;;;;;;5108486;28;20131;-75
2021/12/13 14:15:11;;;;;;;22.85;11.27;;;;;;;;;;5108667;28;20039;-77
2021/12/13 14:17:37;;;;;;;24.98;11.60;;;;;;;;;;5108590;28;20043;-76
2021/12/13 14:20:24;;;;;;;23.95;12.70;;;;;;;;;;5108393;28;20105;-77
2021/12/13 14:23:08;;;;;;;24.98;12.30;;;;;;;;;;5107819;28;20134;-77
2021/12/13 14:25:37;;;;;;;24.80;12.00;;;;;;;;;;5125697;27;20503;-77
2021/12/13 14:28:05;;;;;;;21.00;11.65;;;;;;;;;;5108240;28;20096;-76
2021/12/13 14:30:36;;;;;;;22.30;12.10;;;;;;;;;;5091596;28;20479;-83
2021/12/13 14:33:19;;;;;;;23.00;12.05;;;;;;;;;;5108062;28;20502;-83
2021/12/13 14:35:45;;;;;;;24.25;12.63;;;;;;;;;;5108436;28;20382;-82
2021/12/13 14:38:11;;;;;;;22.33;11.88;;;;;;;;;;5108224;28;20040;-82
2021/12/13 14:40:50;;;;;;;23.15;12.02;;;;;;;;;;5108669;28;20043;-83
2021/12/13 14:43:17;;;;;;;23.08;12.57;;;;;;;;;;5112335;28;20402;-83
2021/12/13 14:45:43;;;;;;;24.30;11.50;;;;;;;;;;5112830;28;20040;-83
2021/12/13 14:48:10;;;;;;;19.73;11.05;;;;;;;;;;5112653;28;20047;-83
2021/12/13 14:50:36;;;;;;;20.55;11.23;;;;;;;;;;5112529;28;20044;-83